Time;durP1;ratioP1;P1;durP2;ratioP2;P2;SDS_P1;SDS_P2;PMS_P1;PMS_P2;Temp;Humidity;BMP_temperature;BMP_pressure;BME280_temperature;BME280_humidity;BME280_pressure;Samples;Min_cycle;Max_cycle;Signal;HPM_P1;HPM_P2
2023/05/16 00:01:34;;;;;;;9.40;8.50;;;14.10;99.90;;;;;;5034209;28;20191;-72
2023/05/16 00:04:00;;;;;;;9.47;8.43;;;14.10;99.90;;;;;;5034082;28;20173;-72
2023/05/16 00:06:25;;;;;;;12.83;10.13;;;14.10;99.90;;;;;;5034128;28;20459;-73
2023/05/16 00:08:51;;;;;;;9.60;8.80;;;14.20;99.90;;;;;;5033745;28;20201;-72
2023/05/16 00:11:17;;;;;;;9.07;8.27;;;14.10;99.90;;;;;;5015683;28;20241;-73
2023/05/16 00:13:43;;;;;;;9.40;8.50;;;14.20;99.90;;;;;;5034044;28;20274;-74
2023/05/16 00:16:08;;;;;;;10.43;9.50;;;14.10;99.90;;;;;;5033667;28;20248;-73
2023/05/16 00:18:37;;;;;;;10.67;9.77;;;14.10;99.90;;;;;;5033628;28;20525;-74
2023/05/16 00:21:04;;;;;;;9.37;8.47;;;14.10;99.90;;;;;;5033879;28;20151;-73
2023/05/16 00:23:30;;;;;;;9.67;8.77;;;14.20;99.90;;;;;;5033356;28;20994;-73
2023/05/16 00:25:56;;;;;;;11.30;9.83;;;14.30;99.90;;;;;;5033416;28;20503;-73
2023/05/16 00:28:22;;;;;;;11.23;10.23;;;14.20;99.90;;;;;;5033457;28;20464;-72
2023/05/16 00:30:47;;;;;;;10.43;9.50;;;14.20;99.90;;;;;;5033515;28;20176;-73
2023/05/16 00:33:13;;;;;;;10.80;9.80;;;14.20;99.90;;;;;;5015406;28;20197;-73
2023/05/16 00:35:38;;;;;;;10.70;9.63;;;14.30;99.90;;;;;;5033419;28;20268;-73
2023/05/16 00:38:05;;;;;;;9.77;8.97;;;14.40;99.90;;;;;;5033669;28;20211;-73
2023/05/16 00:40:30;;;;;;;11.23;10.27;;;14.50;99.90;;;;;;5033557;28;20159;-72
2023/05/16 00:42:56;;;;;;;10.60;9.70;;;14.40;99.90;;;;;;5033390;28;20409;-73
2023/05/16 00:45:21;;;;;;;11.17;10.17;;;14.50;99.90;;;;;;5033441;28;20540;-73
2023/05/16 00:47:47;;;;;;;12.23;11.03;;;14.40;99.90;;;;;;5033577;28;20231;-73
2023/05/16 00:50:13;;;;;;;13.80;12.37;;;14.50;99.90;;;;;;5033569;28;20222;-73
2023/05/16 00:52:38;;;;;;;14.33;13.00;;;14.50;99.90;;;;;;5015454;28;20196;-73
2023/05/16 00:55:05;;;;;;;14.83;13.33;;;14.50;99.90;;;;;;5032959;28;20193;-73
2023/05/16 00:57:30;;;;;;;15.13;13.63;;;14.40;99.90;;;;;;5033356;28;20164;-72
2023/05/16 00:59:56;;;;;;;14.07;12.40;;;14.50;99.90;;;;;;5032976;28;20799;-73
2023/05/16 01:02:22;;;;;;;15.43;13.90;;;14.50;99.90;;;;;;5033073;28;20661;-72
2023/05/16 01:04:48;;;;;;;15.10;13.63;;;14.50;99.90;;;;;;5033469;28;20416;-73
2023/05/16 01:07:14;;;;;;;15.17;13.67;;;14.50;99.90;;;;;;5033294;28;20558;-74
2023/05/16 01:09:40;;;;;;;18.20;16.30;;;14.60;99.90;;;;;;5032368;28;20421;-73
2023/05/16 01:12:08;;;;;;;22.47;20.03;;;14.60;99.90;;;;;;5031467;28;20672;-73
2023/05/16 01:15:09;;;;;;;20.77;18.50;;;14.60;99.90;;;;;;5032815;28;20166;-73
2023/05/16 01:18:02;;;;;;;21.20;19.10;;;14.60;99.90;;;;;;4968789;28;20563;-72
2023/05/16 01:20:41;;;;;;;22.37;19.90;;;14.60;99.90;;;;;;5011869;28;20953;-74
2023/05/16 01:23:35;;;;;;;22.30;20.10;;;14.50;99.90;;;;;;5004911;28;20421;-73
2023/05/16 01:26:15;;;;;;;22.17;19.97;;;14.20;99.90;;;;;;5028982;28;20546;-73
2023/05/16 01:28:41;;;;;;;25.83;23.27;;;14.20;99.90;;;;;;5032609;28;20798;-73
2023/05/16 01:31:06;;;;;;;28.73;26.03;;;14.10;99.90;;;;;;5032526;28;20401;-73
2023/05/16 01:33:32;;;;;;;27.43;24.67;;;13.80;99.90;;;;;;5032489;28;20406;-73
2023/05/16 01:36:13;;;;;;;28.67;24.03;;;13.80;99.90;;;;;;5032490;28;20179;-73
2023/05/16 01:38:42;;;;;;;26.33;23.63;;;13.70;99.90;;;;;;5032819;28;20594;-74
2023/05/16 01:41:17;;;;;;;30.73;26.80;;;13.70;99.90;;;;;;5032337;28;20413;-74
2023/05/16 01:43:47;;;;;;;31.30;27.47;;;13.80;99.90;;;;;;5015631;28;20452;-72
2023/05/16 01:46:30;;;;;;;29.17;25.80;;;13.60;99.90;;;;;;5018841;28;20416;-73
2023/05/16 01:49:19;;;;;;;30.03;26.47;;;13.60;99.90;;;;;;5036409;28;20420;-73
2023/05/16 01:51:51;;;;;;;27.87;24.60;;;13.70;99.90;;;;;;5036916;28;20760;-72
2023/05/16 01:54:18;;;;;;;29.30;26.27;;;13.70;99.90;;;;;;5016450;28;20405;-74
2023/05/16 01:56:52;;;;;;;31.23;27.90;;;13.90;99.90;;;;;;5016737;28;20412;-73
2023/05/16 01:59:20;;;;;;;31.50;28.20;;;14.00;99.90;;;;;;5016711;28;20437;-73
2023/05/16 02:01:46;;;;;;;33.80;30.20;;;13.80;99.90;;;;;;4998946;28;20500;-73
2023/05/16 02:04:14;;;;;;;33.17;29.07;;;13.80;99.90;;;;;;5016920;28;20443;-73
2023/05/16 02:06:39;;;;;;;34.17;30.47;;;13.60;99.90;;;;;;5016944;28;20217;-73
2023/05/16 02:09:05;;;;;;;34.87;30.50;;;13.60;99.90;;;;;;5016375;28;20907;-73
2023/05/16 02:11:31;;;;;;;35.80;32.00;;;13.50;99.90;;;;;;5016733;28;20389;-74
2023/05/16 02:13:56;;;;;;;33.07;29.27;;;13.60;99.90;;;;;;5016937;28;20189;-73
2023/05/16 02:16:22;;;;;;;33.23;29.90;;;13.50;99.90;;;;;;5016627;28;20513;-73
2023/05/16 02:18:48;;;;;;;34.50;29.40;;;13.50;99.90;;;;;;5016444;28;20293;-73
2023/05/16 02:21:13;;;;;;;37.10;29.53;;;13.80;99.90;;;;;;5017569;28;20539;-73
2023/05/16 02:23:39;;;;;;;33.90;30.30;;;13.60;99.90;;;;;;5033704;28;20173;-73
2023/05/16 02:26:05;;;;;;;38.20;32.30;;;13.70;99.90;;;;;;5049373;28;20222;-73
2023/05/16 02:28:30;;;;;;;34.83;29.17;;;13.60;99.90;;;;;;5047536;28;20579;-74
2023/05/16 02:30:57;;;;;;;33.20;29.63;;;13.50;99.90;;;;;;5036811;28;20391;-74
2023/05/16 02:33:23;;;;;;;34.10;29.30;;;13.50;99.90;;;;;;5036817;28;20180;-73
2023/05/16 02:35:49;;;;;;;38.87;32.00;;;13.50;99.90;;;;;;5046653;28;20404;-73
2023/05/16 02:38:16;;;;;;;33.70;30.03;;;13.60;99.90;;;;;;5036319;28;20398;-71
2023/05/16 02:40:42;;;;;;;39.27;33.53;;;13.50;99.90;;;;;;5053572;28;20661;-73
2023/05/16 02:43:07;;;;;;;41.23;33.17;;;13.30;99.90;;;;;;5053981;28;20414;-73
2023/05/16 02:45:33;;;;;;;34.40;29.00;;;13.50;99.90;;;;;;5053924;28;20259;-73
2023/05/16 02:47:58;;;;;;;36.13;30.43;;;13.60;99.90;;;;;;5053729;28;20231;-73
2023/05/16 02:50:24;;;;;;;36.13;30.97;;;13.80;99.90;;;;;;5053899;28;20237;-73
2023/05/16 02:52:49;;;;;;;37.00;31.80;;;13.70;99.90;;;;;;5054070;28;20279;-73
2023/05/16 02:55:15;;;;;;;37.37;30.80;;;13.80;99.90;;;;;;5052220;28;20163;-72
2023/05/16 02:57:41;;;;;;;36.77;30.60;;;14.00;99.90;;;;;;5052908;28;20174;-73
2023/05/16 03:00:08;;;;;;;34.33;30.20;;;14.00;99.90;;;;;;5041692;28;20246;-73
2023/05/16 03:02:34;;;;;;;40.77;31.33;;;14.00;99.90;;;;;;5035419;28;20181;-72
2023/05/16 03:05:00;;;;;;;39.27;33.10;;;14.10;99.90;;;;;;5035365;28;20409;-73
2023/05/16 03:07:25;;;;;;;39.10;31.80;;;13.60;99.90;;;;;;5035309;28;20193;-73
2023/05/16 03:09:51;;;;;;;38.47;31.60;;;13.60;99.90;;;;;;5034674;28;20205;-73
2023/05/16 03:12:16;;;;;;;37.20;32.50;;;13.70;99.90;;;;;;5035295;28;20225;-73
2023/05/16 03:14:42;;;;;;;37.13;31.30;;;13.70;99.90;;;;;;5035043;28;20288;-73
2023/05/16 03:17:08;;;;;;;40.17;32.50;;;13.70;99.90;;;;;;5034516;28;20177;-73
2023/05/16 03:19:33;;;;;;;40.00;31.97;;;13.60;99.90;;;;;;5034560;28;20217;-73
2023/05/16 03:21:59;;;;;;;44.47;33.73;;;13.70;99.90;;;;;;5033750;28;20185;-72
2023/05/16 03:24:24;;;;;;;40.33;33.47;;;13.90;99.90;;;;;;5014899;28;20184;-73
2023/05/16 03:26:50;;;;;;;43.03;33.93;;;13.90;99.90;;;;;;5014709;28;20239;-72
2023/05/16 03:29:16;;;;;;;41.37;34.20;;;13.60;99.90;;;;;;5014981;28;20192;-73
2023/05/16 03:31:42;;;;;;;44.97;33.57;;;13.50;99.90;;;;;;5015195;28;20449;-72
2023/05/16 03:34:08;;;;;;;40.87;35.40;;;13.50;99.90;;;;;;5027330;28;20532;-73
2023/05/16 03:36:34;;;;;;;52.20;40.77;;;13.50;99.90;;;;;;5034718;28;20286;-72
2023/05/16 03:39:00;;;;;;;42.83;33.80;;;13.40;99.90;;;;;;5034232;28;20187;-72
2023/05/16 03:41:25;;;;;;;42.10;34.53;;;13.30;99.90;;;;;;5034155;28;20908;-73
2023/05/16 03:43:51;;;;;;;49.50;35.87;;;13.40;99.90;;;;;;5034535;28;20246;-73
2023/05/16 03:46:17;;;;;;;47.30;36.90;;;13.20;99.90;;;;;;5031251;28;20268;-73
2023/05/16 03:48:42;;;;;;;45.97;35.97;;;13.40;99.90;;;;;;5014669;28;20227;-74
2023/05/16 03:51:08;;;;;;;49.60;37.03;;;13.40;99.90;;;;;;5014275;28;20196;-73
2023/05/16 03:53:33;;;;;;;52.70;38.37;;;13.30;99.90;;;;;;5028181;28;20223;-73
2023/05/16 03:55:59;;;;;;;50.60;39.80;;;13.40;99.90;;;;;;5033843;28;20167;-73
2023/05/16 03:58:24;;;;;;;45.07;36.43;;;13.30;99.90;;;;;;5034167;28;20186;-73
2023/05/16 04:00:50;;;;;;;47.73;36.80;;;13.30;99.90;;;;;;5016122;28;20623;-72
2023/05/16 04:03:15;;;;;;;46.97;37.10;;;13.30;99.90;;;;;;5034082;28;20175;-73
2023/05/16 04:05:41;;;;;;;56.70;41.10;;;13.30;99.90;;;;;;5034196;28;20297;-73
2023/05/16 04:08:06;;;;;;;42.90;34.90;;;13.30;99.90;;;;;;5015550;28;20257;-72
2023/05/16 04:10:32;;;;;;;51.30;39.43;;;13.40;99.90;;;;;;5033398;28;20180;-73
2023/05/16 04:12:58;;;;;;;48.43;38.57;;;13.30;99.90;;;;;;5015908;28;20208;-73
2023/05/16 04:15:23;;;;;;;52.00;40.93;;;13.40;99.90;;;;;;5034056;28;20170;-72
2023/05/16 04:17:49;;;;;;;49.10;37.50;;;13.40;99.90;;;;;;5033982;28;20164;-73
2023/05/16 04:20:15;;;;;;;48.20;38.67;;;13.50;99.90;;;;;;5055290;23;20318;-75
2023/05/16 04:22:41;;;;;;;49.80;38.53;;;13.30;99.90;;;;;;5014581;28;20661;-75
2023/05/16 04:25:07;;;;;;;48.20;38.57;;;13.40;99.90;;;;;;5014077;28;20397;-73
2023/05/16 04:27:32;;;;;;;47.57;37.77;;;13.40;99.90;;;;;;5014657;28;20179;-74
2023/05/16 04:29:58;;;;;;;52.90;38.60;;;13.60;99.90;;;;;;5013089;28;20921;-74
2023/05/16 04:32:24;;;;;;;49.73;39.93;;;13.70;99.90;;;;;;5014303;28;20204;-73
2023/05/16 04:34:53;;;;;;;50.63;39.47;;;13.50;99.90;;;;;;5014561;28;20538;-73
2023/05/16 04:37:19;;;;;;;52.93;41.30;;;13.50;99.90;;;;;;5014208;28;20231;-73
2023/05/16 04:39:45;;;;;;;48.83;36.17;;;13.50;99.90;;;;;;5013971;28;20434;-73
2023/05/16 04:42:11;;;;;;;48.23;38.00;;;13.60;99.90;;;;;;5013960;28;20411;-73
2023/05/16 04:44:36;;;;;;;56.33;42.40;;;13.70;99.90;;;;;;5014406;28;20412;-73
2023/05/16 04:47:02;;;;;;;52.53;41.00;;;13.80;99.90;;;;;;5014134;28;20186;-74
2023/05/16 04:49:27;;;;;;;46.13;36.83;;;13.90;99.90;;;;;;5013933;28;20200;-73
2023/05/16 04:51:53;;;;;;;48.37;37.30;;;13.90;99.90;;;;;;5012508;28;20300;-74
2023/05/16 04:54:18;;;;;;;45.53;36.73;;;13.60;99.90;;;;;;5014006;28;20189;-72
2023/05/16 04:56:44;;;;;;;49.63;39.60;;;13.40;99.90;;;;;;5013566;28;20170;-74
2023/05/16 04:59:10;;;;;;;51.17;39.03;;;13.50;99.90;;;;;;5013803;28;20188;-74
2023/05/16 05:01:36;;;;;;;49.43;37.73;;;13.60;99.90;;;;;;5013762;28;20322;-74
2023/05/16 05:04:01;;;;;;;52.57;40.13;;;13.50;99.90;;;;;;5012594;28;20186;-74
2023/05/16 05:06:27;;;;;;;50.07;38.67;;;13.60;99.90;;;;;;5013647;28;20401;-72
2023/05/16 05:08:53;;;;;;;49.80;38.77;;;13.70;99.90;;;;;;5011873;28;20205;-73
2023/05/16 05:11:19;;;;;;;50.83;39.77;;;13.80;99.90;;;;;;5012024;28;20178;-74
2023/05/16 05:13:45;;;;;;;49.20;37.80;;;14.00;99.90;;;;;;5012303;28;20851;-73
2023/05/16 05:16:12;;;;;;;49.67;37.93;;;13.80;99.90;;;;;;5012092;28;20495;-73
2023/05/16 05:18:37;;;;;;;50.87;40.83;;;13.70;99.90;;;;;;5012597;28;20661;-73
2023/05/16 05:21:03;;;;;;;52.27;38.80;;;13.70;99.90;;;;;;5012202;28;20400;-73
2023/05/16 05:23:29;;;;;;;50.40;40.00;;;13.60;99.90;;;;;;5008373;28;20208;-73
2023/05/16 05:25:55;;;;;;;46.13;38.00;;;13.50;99.90;;;;;;5011560;28;20167;-73
2023/05/16 05:28:20;;;;;;;48.10;35.77;;;13.50;99.90;;;;;;5012042;28;20948;-73
2023/05/16 05:30:47;;;;;;;53.20;39.13;;;13.50;99.90;;;;;;5013322;28;20164;-73
2023/05/16 05:33:15;;;;;;;52.93;37.30;;;13.50;99.90;;;;;;5004399;28;20661;-74
2023/05/16 05:35:41;;;;;;;50.90;39.60;;;13.50;99.90;;;;;;4992689;28;20425;-74
2023/05/16 05:38:06;;;;;;;49.93;39.97;;;13.50;99.90;;;;;;4994136;28;20408;-73
2023/05/16 05:40:32;;;;;;;54.50;41.80;;;13.50;99.90;;;;;;4993361;28;20185;-72
2023/05/16 05:42:58;;;;;;;47.60;37.03;;;13.60;99.90;;;;;;4994113;28;20261;-73
2023/05/16 05:45:23;;;;;;;55.40;41.33;;;13.70;99.90;;;;;;4994031;28;20441;-74
2023/05/16 05:47:49;;;;;;;48.87;37.90;;;13.50;99.90;;;;;;4994150;28;20170;-73
2023/05/16 05:50:15;;;;;;;50.87;40.80;;;13.50;99.90;;;;;;4993624;28;20612;-74
2023/05/16 05:52:41;;;;;;;44.27;36.60;;;13.60;99.90;;;;;;5000459;28;20484;-73
2023/05/16 05:55:07;;;;;;;42.50;36.30;;;13.70;99.90;;;;;;5011868;28;20173;-73
2023/05/16 05:57:32;;;;;;;46.93;37.93;;;13.60;99.90;;;;;;5011863;28;20171;-73
2023/05/16 05:59:58;;;;;;;43.53;34.73;;;13.50;99.90;;;;;;5013057;28;20190;-73
2023/05/16 06:02:23;;;;;;;47.60;35.17;;;13.50;99.90;;;;;;5013070;28;20171;-74
2023/05/16 06:04:49;;;;;;;44.93;36.93;;;13.70;99.90;;;;;;5013393;28;20269;-73
2023/05/16 06:07:15;;;;;;;48.47;36.47;;;13.70;99.90;;;;;;5013478;28;20172;-74
2023/05/16 06:09:42;;;;;;;49.53;38.90;;;13.50;99.90;;;;;;5014732;28;20191;-73
2023/05/16 06:12:08;;;;;;;46.97;36.70;;;13.70;99.90;;;;;;5011646;28;20894;-74
2023/05/16 06:14:33;;;;;;;44.93;36.37;;;13.50;99.90;;;;;;5013065;28;20503;-73
2023/05/16 06:16:59;;;;;;;45.43;35.97;;;13.60;99.90;;;;;;5011965;28;20171;-74
2023/05/16 06:19:25;;;;;;;44.70;33.87;;;13.50;99.90;;;;;;5011567;28;20304;-73
2023/05/16 06:21:50;;;;;;;38.23;33.77;;;13.50;99.90;;;;;;5011344;28;20165;-73
2023/05/16 06:24:16;;;;;;;45.13;34.13;;;13.60;99.90;;;;;;5007981;28;20925;-73
2023/05/16 06:26:41;;;;;;;45.43;35.90;;;13.50;99.90;;;;;;5012626;28;20202;-73
2023/05/16 06:29:07;;;;;;;41.00;32.77;;;13.40;99.90;;;;;;5012910;28;20190;-73
2023/05/16 06:31:32;;;;;;;46.50;34.43;;;13.40;99.90;;;;;;5016483;28;20239;-73
2023/05/16 06:33:58;;;;;;;40.90;33.57;;;13.40;99.90;;;;;;5016821;28;20187;-72
2023/05/16 06:36:23;;;;;;;47.50;34.40;;;13.50;99.90;;;;;;5016715;28;20223;-72
2023/05/16 06:38:49;;;;;;;41.37;34.70;;;13.40;99.90;;;;;;5016591;28;20666;-72
2023/05/16 06:41:15;;;;;;;39.13;32.60;;;13.50;99.90;;;;;;5016040;28;20167;-72
2023/05/16 06:43:40;;;;;;;38.47;32.13;;;13.60;99.90;;;;;;5016152;28;20418;-72
2023/05/16 06:46:06;;;;;;;42.70;33.97;;;13.70;99.90;;;;;;5016268;28;20173;-72
2023/05/16 06:48:32;;;;;;;35.23;29.97;;;13.70;99.90;;;;;;5016097;28;20177;-72
2023/05/16 06:50:57;;;;;;;37.93;29.30;;;13.70;99.90;;;;;;5016727;28;20167;-71
2023/05/16 06:53:23;;;;;;;40.77;33.63;;;13.70;99.90;;;;;;5002266;28;20201;-72
2023/05/16 06:55:48;;;;;;;39.73;31.87;;;13.70;99.90;;;;;;4995984;28;20665;-72
2023/05/16 06:58:14;;;;;;;39.00;31.57;;;13.80;99.90;;;;;;4996778;28;20182;-72
2023/05/16 07:00:40;;;;;;;38.40;29.07;;;13.90;99.90;;;;;;4996653;28;20187;-72
2023/05/16 07:03:06;;;;;;;38.30;32.37;;;14.00;99.90;;;;;;4996836;28;20202;-73
2023/05/16 07:05:31;;;;;;;38.03;30.90;;;14.00;99.90;;;;;;4996628;28;20448;-72
2023/05/16 07:07:57;;;;;;;31.90;28.47;;;13.90;99.90;;;;;;4994941;28;20520;-72
2023/05/16 07:10:22;;;;;;;37.00;29.13;;;13.80;99.90;;;;;;4996053;28;20194;-72
2023/05/16 07:12:48;;;;;;;35.50;29.47;;;13.50;99.90;;;;;;4996077;28;20198;-72
2023/05/16 07:15:13;;;;;;;32.53;28.07;;;13.40;99.90;;;;;;4996304;28;20249;-72
2023/05/16 07:17:39;;;;;;;41.23;29.00;;;13.40;99.90;;;;;;5000145;28;20201;-72
2023/05/16 07:20:06;;;;;;;32.63;27.93;;;13.40;99.90;;;;;;5015532;28;20250;-72
2023/05/16 07:22:32;;;;;;;31.53;26.57;;;13.60;99.90;;;;;;5009916;28;20587;-72
2023/05/16 07:24:59;;;;;;;30.10;25.57;;;13.50;99.90;;;;;;4997406;28;20464;-73
2023/05/16 07:27:26;;;;;;;28.83;24.07;;;13.70;99.90;;;;;;5015287;28;20556;-73
2023/05/16 07:29:51;;;;;;;28.43;24.37;;;13.80;99.90;;;;;;5015507;28;20424;-73
2023/05/16 07:32:17;;;;;;;28.80;23.13;;;14.00;99.90;;;;;;5015351;28;20447;-72
2023/05/16 07:34:43;;;;;;;22.20;19.90;;;13.80;99.90;;;;;;5015249;28;20355;-72
2023/05/16 07:37:11;;;;;;;20.43;18.40;;;13.60;99.90;;;;;;5014154;28;20181;-72
2023/05/16 07:39:38;;;;;;;21.37;19.00;;;13.50;99.90;;;;;;5015243;28;20192;-72
2023/05/16 07:42:05;;;;;;;19.33;17.40;;;13.40;99.90;;;;;;5015601;28;20424;-72
2023/05/16 07:44:30;;;;;;;19.27;16.83;;;13.40;99.90;;;;;;5017052;28;20908;-72
2023/05/16 07:46:56;;;;;;;17.93;16.00;;;13.50;99.90;;;;;;5015396;28;20412;-73
2023/05/16 07:49:21;;;;;;;17.77;16.07;;;13.70;99.90;;;;;;5016658;28;20226;-72
2023/05/16 07:51:47;;;;;;;15.87;14.27;;;13.70;99.90;;;;;;5020500;28;20191;-72
2023/05/16 07:54:13;;;;;;;14.30;12.87;;;13.70;99.90;;;;;;5018343;28;20230;-72
2023/05/16 07:56:38;;;;;;;14.60;13.20;;;13.60;99.90;;;;;;5016352;28;20193;-72
2023/05/16 07:59:04;;;;;;;15.10;13.10;;;13.60;99.90;;;;;;5015230;28;20679;-73
2023/05/16 08:01:30;;;;;;;15.27;13.87;;;13.50;99.90;;;;;;5014933;28;20180;-72
2023/05/16 08:03:55;;;;;;;13.67;12.47;;;13.60;99.90;;;;;;5014946;28;20403;-73
2023/05/16 08:06:21;;;;;;;13.77;12.50;;;13.50;99.90;;;;;;5015332;28;20224;-72
2023/05/16 08:08:47;;;;;;;13.70;12.40;;;13.70;99.90;;;;;;5015038;28;20271;-71
2023/05/16 08:11:12;;;;;;;15.03;13.53;;;13.80;99.90;;;;;;5014285;28;20177;-72
2023/05/16 08:13:38;;;;;;;15.27;13.90;;;13.80;99.90;;;;;;5015166;28;20171;-71
2023/05/16 08:16:03;;;;;;;15.57;14.17;;;13.90;99.90;;;;;;5014606;28;20195;-72
2023/05/16 08:18:29;;;;;;;15.13;13.53;;;14.00;99.90;;;;;;5014532;28;20229;-72
2023/05/16 08:20:54;;;;;;;14.77;13.37;;;13.80;99.90;;;;;;5015141;28;20205;-72
2023/05/16 08:23:20;;;;;;;15.70;14.10;;;13.70;99.90;;;;;;5014536;28;20545;-73
2023/05/16 08:25:46;;;;;;;15.07;13.60;;;13.60;99.90;;;;;;5013959;28;20278;-72
2023/05/16 08:28:11;;;;;;;17.03;15.43;;;13.60;99.90;;;;;;5014327;28;20174;-72
2023/05/16 08:30:37;;;;;;;16.27;14.67;;;13.60;99.90;;;;;;5014452;28;20485;-72
2023/05/16 08:33:04;;;;;;;15.00;13.50;;;13.40;99.90;;;;;;5014404;28;20203;-72
2023/05/16 08:35:30;;;;;;;14.90;13.60;;;13.60;99.90;;;;;;5014852;28;20162;-72
2023/05/16 08:37:56;;;;;;;16.27;14.63;;;13.50;99.90;;;;;;5014194;28;20404;-72
2023/05/16 08:40:27;;;;;;;15.60;14.00;;;13.40;99.90;;;;;;5013997;28;20420;-72
2023/05/16 08:42:53;;;;;;;15.83;14.33;;;13.40;99.90;;;;;;5013869;28;20399;-72
2023/05/16 08:45:18;;;;;;;17.03;15.27;;;13.30;99.90;;;;;;5014119;28;20474;-72
2023/05/16 08:47:45;;;;;;;19.10;17.13;;;13.20;99.90;;;;;;5012605;28;20505;-72
2023/05/16 08:50:13;;;;;;;19.23;17.30;;;13.20;99.90;;;;;;5012831;28;20200;-72
2023/05/16 08:52:42;;;;;;;20.43;18.43;;;13.30;99.90;;;;;;5014050;28;20505;-72
2023/05/16 08:55:09;;;;;;;19.33;17.40;;;13.40;99.90;;;;;;5013786;28;20409;-72
2023/05/16 08:57:34;;;;;;;20.33;18.23;;;13.50;99.90;;;;;;5013641;28;20463;-72
2023/05/16 09:00:00;;;;;;;19.10;17.17;;;13.40;99.90;;;;;;5014173;28;20423;-72
2023/05/16 09:02:27;;;;;;;20.37;18.40;;;13.60;99.90;;;;;;5013671;28;20234;-72
2023/05/16 09:04:56;;;;;;;19.77;17.63;;;13.50;99.90;;;;;;5014282;28;20491;-71
2023/05/16 09:07:22;;;;;;;19.67;17.67;;;13.60;99.90;;;;;;5013934;28;20443;-72
2023/05/16 09:09:48;;;;;;;20.87;18.50;;;13.70;99.90;;;;;;5013270;28;20441;-71
2023/05/16 09:12:13;;;;;;;20.60;18.50;;;13.90;99.90;;;;;;5013478;28;20218;-72
2023/05/16 09:14:39;;;;;;;22.47;19.37;;;13.90;99.90;;;;;;5013688;28;20411;-72
2023/05/16 09:17:06;;;;;;;21.03;18.80;;;13.90;99.90;;;;;;5013674;28;20731;-72
2023/05/16 09:19:38;;;;;;;20.40;18.30;;;13.80;99.90;;;;;;5013392;28;20208;-72
2023/05/16 09:22:08;;;;;;;21.73;19.43;;;13.80;99.90;;;;;;5013788;28;20550;-72
2023/05/16 09:24:43;;;;;;;19.10;17.20;;;14.00;99.90;;;;;;5013235;28;20427;-71
2023/05/16 09:27:11;;;;;;;23.00;19.63;;;14.00;99.90;;;;;;5013245;28;20548;-70
2023/05/16 09:29:39;;;;;;;22.00;19.80;;;13.90;99.90;;;;;;5013088;28;20433;-72
2023/05/16 09:32:16;;;;;;;22.47;18.97;;;13.70;99.90;;;;;;5013268;28;20983;-72
2023/05/16 09:34:48;;;;;;;22.07;19.77;;;13.50;99.90;;;;;;5013292;28;20413;-71
2023/05/16 09:37:14;;;;;;;24.40;21.83;;;13.50;99.90;;;;;;4996830;28;21002;-72
2023/05/16 09:39:48;;;;;;;23.33;20.53;;;13.50;99.90;;;;;;4993430;28;20467;-71
2023/05/16 09:42:15;;;;;;;24.07;21.47;;;13.60;99.90;;;;;;4993420;28;20923;-71
2023/05/16 09:44:45;;;;;;;22.67;20.37;;;13.70;99.90;;;;;;4994078;28;20870;-71
2023/05/16 09:47:14;;;;;;;26.70;22.53;;;13.70;99.90;;;;;;4992439;28;20414;-71
2023/05/16 09:49:40;;;;;;;27.07;24.17;;;13.80;99.90;;;;;;4993619;28;20468;-71
2023/05/16 09:52:06;;;;;;;31.20;22.60;;;14.00;99.90;;;;;;4996185;28;20445;-71
2023/05/16 09:54:32;;;;;;;23.90;21.07;;;14.50;99.90;;;;;;5013454;28;20219;-71
2023/05/16 09:56:59;;;;;;;23.00;20.60;;;14.90;99.90;;;;;;5012761;28;20168;-71
2023/05/16 09:59:27;;;;;;;22.37;19.83;;;15.30;99.90;;;;;;5013134;28;20493;-73
2023/05/16 10:01:53;;;;;;;21.10;19.00;;;16.00;99.90;;;;;;5013179;28;20410;-73
2023/05/16 10:04:19;;;;;;;24.60;21.53;;;15.80;99.90;;;;;;5012170;28;20427;-73
2023/05/16 10:06:46;;;;;;;23.83;21.23;;;15.70;99.90;;;;;;5017036;28;20923;-73
2023/05/16 10:09:15;;;;;;;24.30;21.80;;;15.40;99.90;;;;;;5017040;28;20346;-72
2023/05/16 10:11:42;;;;;;;23.10;20.40;;;15.20;99.90;;;;;;5016314;28;20453;-73
2023/05/16 10:14:12;;;;;;;22.97;19.53;;;14.90;99.90;;;;;;5015742;28;20481;-73
2023/05/16 10:16:42;;;;;;;23.80;21.17;;;14.50;99.90;;;;;;5017452;28;20403;-72
2023/05/16 10:19:08;;;;;;;25.53;22.93;;;14.50;99.90;;;;;;5016571;28;20828;-73
2023/05/16 10:21:36;;;;;;;23.77;20.23;;;14.40;99.90;;;;;;5038413;23;20497;-71
2023/05/16 10:24:05;;;;;;;24.57;21.80;;;14.70;99.90;;;;;;4998950;28;20273;-72
2023/05/16 10:26:31;;;;;;;25.70;21.63;;;14.90;99.90;;;;;;5016046;28;20407;-71
2023/05/16 10:28:58;;;;;;;20.97;18.27;;;15.00;99.90;;;;;;5016411;28;20775;-71
2023/05/16 10:31:24;;;;;;;22.83;19.50;;;15.20;99.90;;;;;;5000705;28;20517;-71
2023/05/16 10:33:50;;;;;;;23.30;19.50;;;15.40;99.90;;;;;;4996721;28;20415;-72
2023/05/16 10:36:17;;;;;;;22.33;19.87;;;15.50;99.90;;;;;;4997052;28;20409;-73
2023/05/16 10:38:44;;;;;;;23.23;20.83;;;15.40;99.90;;;;;;4996712;28;20404;-72
2023/05/16 10:41:10;;;;;;;22.70;20.20;;;15.30;99.90;;;;;;4996764;28;20435;-72
2023/05/16 10:43:36;;;;;;;21.60;19.40;;;15.50;99.90;;;;;;4996774;28;20400;-72
2023/05/16 10:46:04;;;;;;;21.37;18.23;;;15.10;99.90;;;;;;4996583;28;20420;-72
2023/05/16 10:48:40;;;;;;;23.10;18.50;;;15.10;99.90;;;;;;4996478;28;20585;-71
2023/05/16 10:51:33;;;;;;;19.43;17.37;;;15.20;99.90;;;;;;4996485;28;20486;-72
2023/05/16 10:54:08;;;;;;;23.50;19.83;;;15.50;99.90;;;;;;4996721;28;20533;-72
2023/05/16 10:56:34;;;;;;;22.13;19.87;;;15.10;99.90;;;;;;4995910;28;20576;-72
2023/05/16 10:59:00;;;;;;;25.13;19.90;;;14.90;99.90;;;;;;4996587;28;20497;-72
2023/05/16 11:01:30;;;;;;;21.77;18.60;;;14.80;99.90;;;;;;4996273;28;20519;-72
2023/05/16 11:03:56;;;;;;;21.80;18.53;;;15.00;99.90;;;;;;4997299;28;20670;-72
2023/05/16 11:06:28;;;;;;;22.43;19.90;;;15.10;99.90;;;;;;4996411;28;20437;-72
2023/05/16 11:09:21;;;;;;;22.90;18.30;;;14.90;99.90;;;;;;4996186;28;20230;-72
2023/05/16 11:11:59;;;;;;;17.13;15.33;;;14.60;99.90;;;;;;4986973;28;20459;-72
2023/05/16 11:14:32;;;;;;;20.43;16.17;;;14.10;99.90;;;;;;4996087;28;20414;-73
2023/05/16 11:17:10;;;;;;;24.67;17.47;;;14.00;99.90;;;;;;4994819;28;20446;-72
2023/05/16 11:19:49;;;;;;;21.30;16.57;;;13.90;99.90;;;;;;4994433;28;20457;-72
2023/05/16 11:22:40;;;;;;;22.77;17.93;;;13.50;99.90;;;;;;4996074;28;20468;-73
2023/05/16 11:25:07;;;;;;;22.87;17.60;;;13.40;99.90;;;;;;4996572;28;20766;-73
2023/05/16 11:27:34;;;;;;;22.80;18.77;;;13.30;99.90;;;;;;4995641;28;20910;-73
2023/05/16 11:30:00;;;;;;;24.40;16.70;;;13.40;99.90;;;;;;4995341;28;20437;-72
2023/05/16 11:32:26;;;;;;;19.10;15.83;;;13.10;99.90;;;;;;4992619;28;20544;-73
2023/05/16 11:34:53;;;;;;;18.30;15.90;;;12.90;99.90;;;;;;4995896;28;20497;-72
2023/05/16 11:37:19;;;;;;;22.20;17.67;;;12.80;99.90;;;;;;4978181;28;20173;-72
2023/05/16 11:39:45;;;;;;;18.03;14.23;;;12.90;99.90;;;;;;4995857;28;20493;-73
2023/05/16 11:42:12;;;;;;;19.03;15.67;;;12.90;99.90;;;;;;4995429;28;20865;-72
2023/05/16 11:44:38;;;;;;;17.13;14.40;;;12.90;99.90;;;;;;4995515;28;20165;-72
2023/05/16 11:47:04;;;;;;;14.30;11.40;;;13.00;99.90;;;;;;4995515;28;20416;-72
2023/05/16 11:49:30;;;;;;;15.43;13.00;;;12.90;99.90;;;;;;4995415;28;20462;-71
2023/05/16 11:51:59;;;;;;;14.47;12.60;;;13.00;99.90;;;;;;4995304;28;20449;-72
2023/05/16 11:54:25;;;;;;;14.97;13.47;;;13.10;99.90;;;;;;4994650;28;20861;-72
2023/05/16 11:56:51;;;;;;;14.90;12.73;;;13.20;99.90;;;;;;4995070;28;20876;-72
2023/05/16 11:59:17;;;;;;;14.40;12.90;;;13.30;99.90;;;;;;4995343;28;20945;-72
2023/05/16 12:01:43;;;;;;;14.43;12.17;;;13.40;99.90;;;;;;4995666;28;20562;-72
2023/05/16 12:04:13;;;;;;;14.63;11.70;;;13.40;99.90;;;;;;4995266;28;20876;-72
2023/05/16 12:06:42;;;;;;;14.30;12.83;;;13.40;99.90;;;;;;4995472;28;20165;-72
2023/05/16 12:09:11;;;;;;;14.83;12.60;;;13.30;99.90;;;;;;4995411;28;20885;-72
2023/05/16 12:11:37;;;;;;;14.70;13.20;;;13.30;99.90;;;;;;4994070;28;20423;-71
2023/05/16 12:14:05;;;;;;;14.00;12.50;;;13.30;99.90;;;;;;4994748;28;20419;-71
2023/05/16 12:16:31;;;;;;;15.37;13.17;;;13.20;99.90;;;;;;4977395;28;20420;-71
2023/05/16 12:18:57;;;;;;;14.63;13.13;;;13.10;99.90;;;;;;4995281;28;20919;-71
2023/05/16 12:21:23;;;;;;;14.73;12.10;;;13.20;99.90;;;;;;4994762;28;20438;-72
2023/05/16 12:23:49;;;;;;;14.23;12.73;;;13.10;99.90;;;;;;4994779;28;20413;-72
2023/05/16 12:26:22;;;;;;;12.07;10.87;;;13.20;99.90;;;;;;4994777;28;20601;-72
2023/05/16 12:28:55;;;;;;;12.00;10.63;;;13.20;99.90;;;;;;4993673;28;20547;-72